Time;durP1;ratioP1;P1;durP2;ratioP2;P2;SDS_P1;SDS_P2;PMS_P1;PMS_P2;Temp;Humidity;BMP_temperature;BMP_pressure;BME280_temperature;BME280_humidity;BME280_pressure;Samples;Min_cycle;Max_cycle;Signal;HPM_P1;HPM_P2
2023/08/22 00:00:00;;;;;;;5.03;4.05;;;27.40;63.30;;;;;;5116589;28;20419;-71
2023/08/22 00:02:27;;;;;;;4.60;4.05;;;27.40;63.30;;;;;;5116400;28;20031;-72
2023/08/22 00:04:53;;;;;;;4.40;4.00;;;27.40;63.30;;;;;;5115252;28;20081;-72
2023/08/22 00:07:18;;;;;;;4.57;3.90;;;27.40;63.40;;;;;;5116877;28;20214;-72
2023/08/22 00:09:44;;;;;;;4.32;3.85;;;27.40;63.40;;;;;;5114965;28;20035;-72
2023/08/22 00:12:10;;;;;;;4.45;4.00;;;27.30;63.40;;;;;;5114908;28;20031;-72
2023/08/22 00:14:36;;;;;;;4.72;4.30;;;27.30;63.40;;;;;;5115863;28;20473;-71
2023/08/22 00:17:02;;;;;;;4.70;3.85;;;27.30;63.40;;;;;;5114767;28;20028;-72
2023/08/22 00:19:28;;;;;;;4.65;4.25;;;27.30;63.40;;;;;;5116047;28;20043;-72
2023/08/22 00:21:53;;;;;;;4.70;4.03;;;27.30;63.40;;;;;;5115034;28;20028;-72
2023/08/22 00:24:19;;;;;;;5.15;4.65;;;27.30;63.40;;;;;;5116171;28;20080;-72
2023/08/22 00:26:45;;;;;;;4.50;4.10;;;27.30;63.50;;;;;;5116193;28;20058;-71
2023/08/22 00:29:10;;;;;;;5.32;4.22;;;27.30;63.50;;;;;;5114406;28;20132;-72
2023/08/22 00:31:36;;;;;;;5.28;4.38;;;27.30;63.60;;;;;;5114217;28;20031;-72
2023/08/22 00:34:02;;;;;;;4.80;4.40;;;27.30;63.60;;;;;;5115766;28;20088;-72
2023/08/22 00:36:29;;;;;;;5.15;4.35;;;27.30;63.60;;;;;;5115744;28;20419;-72
2023/08/22 00:38:54;;;;;;;4.90;4.40;;;27.30;63.60;;;;;;5126746;27;20480;-72
2023/08/22 00:41:20;;;;;;;5.30;4.65;;;27.30;63.60;;;;;;5152581;27;20027;-72
2023/08/22 00:43:46;;;;;;;5.35;4.85;;;27.40;63.70;;;;;;5116805;27;20110;-72
2023/08/22 00:46:13;;;;;;;5.68;4.90;;;27.40;63.70;;;;;;5115922;28;20023;-72
2023/08/22 00:48:38;;;;;;;5.10;4.60;;;27.40;63.60;;;;;;5115915;28;20028;-72
2023/08/22 00:51:05;;;;;;;5.40;4.90;;;27.40;63.60;;;;;;5115781;28;20032;-72
2023/08/22 00:53:32;;;;;;;5.30;4.80;;;27.40;63.70;;;;;;5115647;28;20111;-72
2023/08/22 00:55:58;;;;;;;5.30;4.70;;;27.40;64.20;;;;;;5124874;27;20058;-72
2023/08/22 00:58:25;;;;;;;5.05;4.55;;;27.50;63.70;;;;;;5115248;28;20028;-72
2023/08/22 01:00:51;;;;;;;5.47;4.97;;;27.50;63.60;;;;;;5115298;28;20023;-72
2023/08/22 01:03:16;;;;;;;5.80;5.30;;;27.50;63.60;;;;;;5113798;28;20035;-72
2023/08/22 01:05:49;;;;;;;6.20;5.25;;;27.50;63.60;;;;;;5115210;28;20093;-72
2023/08/22 01:08:24;;;;;;;5.90;5.30;;;27.50;63.60;;;;;;5113798;28;20031;-72
2023/08/22 01:10:54;;;;;;;5.93;5.38;;;27.50;63.60;;;;;;5114627;28;20051;-72
2023/08/22 01:13:22;;;;;;;5.80;5.20;;;27.50;63.60;;;;;;5114727;28;20035;-72
2023/08/22 01:15:50;;;;;;;5.80;5.30;;;27.50;63.60;;;;;;5113656;28;20051;-72
2023/08/22 01:18:18;;;;;;;6.13;5.63;;;27.50;63.60;;;;;;5115135;28;20032;-72
2023/08/22 01:20:44;;;;;;;5.40;4.90;;;27.50;63.60;;;;;;5115297;28;20057;-72
2023/08/22 01:23:10;;;;;;;5.25;4.78;;;27.50;63.60;;;;;;5113816;28;20099;-72
2023/08/22 01:25:37;;;;;;;5.30;4.80;;;27.50;63.60;;;;;;5115521;28;20365;-73
2023/08/22 01:28:21;;;;;;;6.00;4.57;;;27.50;63.70;;;;;;5113596;28;20118;-72
2023/08/22 01:30:57;;;;;;;;;;;27.50;63.70;;;;;;5114901;28;20380;-72
2023/08/22 01:33:47;;;;;;;5.40;4.90;;;27.40;63.80;;;;;;5115031;28;20346;-72
2023/08/22 01:36:16;;;;;;;4.95;4.45;;;27.40;63.60;;;;;;5099393;28;20028;-72
2023/08/22 01:38:43;;;;;;;5.60;5.05;;;27.40;63.60;;;;;;5114672;28;20012;-72
2023/08/22 01:41:10;;;;;;;6.00;5.40;;;27.40;63.60;;;;;;5113021;28;20031;-73
2023/08/22 01:43:36;;;;;;;5.20;4.70;;;27.40;63.70;;;;;;5114972;28;20036;-72
2023/08/22 01:46:03;;;;;;;5.70;5.20;;;27.30;63.70;;;;;;5117681;27;20060;-73
2023/08/22 01:48:28;;;;;;;6.22;5.63;;;27.30;63.70;;;;;;5135256;27;20019;-72
2023/08/22 01:50:54;;;;;;;5.50;5.00;;;27.20;63.70;;;;;;5137910;27;20047;-72
2023/08/22 01:53:20;;;;;;;6.10;5.07;;;27.10;63.70;;;;;;5105160;28;20024;-72
2023/08/22 01:55:45;;;;;;;5.93;4.78;;;27.10;64.00;;;;;;5113327;28;20031;-73
2023/08/22 01:58:11;;;;;;;8.05;4.93;;;27.10;64.00;;;;;;5119754;27;20076;-72
2023/08/22 02:00:38;;;;;;;5.93;5.43;;;27.10;64.10;;;;;;5135062;27;20072;-72
2023/08/22 02:03:04;;;;;;;5.20;4.70;;;27.10;64.00;;;;;;5138333;27;20024;-72
2023/08/22 02:05:30;;;;;;;5.38;4.70;;;27.10;64.00;;;;;;5114319;28;20426;-72
2023/08/22 02:07:55;;;;;;;5.05;4.55;;;27.10;64.00;;;;;;5114571;28;20034;-72
2023/08/22 02:10:21;;;;;;;4.97;4.47;;;27.20;64.00;;;;;;5114231;28;20036;-72
2023/08/22 02:12:47;;;;;;;5.50;5.00;;;27.20;64.00;;;;;;5113086;28;20062;-72
2023/08/22 02:15:12;;;;;;;5.20;4.70;;;27.20;64.00;;;;;;5125011;27;20055;-72
2023/08/22 02:17:38;;;;;;;5.22;4.72;;;27.20;64.00;;;;;;5134882;27;20027;-72
2023/08/22 02:20:05;;;;;;;5.47;4.97;;;27.20;64.00;;;;;;5134663;27;20050;-72
2023/08/22 02:22:31;;;;;;;5.50;4.95;;;27.20;64.00;;;;;;5135102;27;20449;-72
2023/08/22 02:24:57;;;;;;;5.68;5.10;;;27.20;63.90;;;;;;5150612;27;20019;-72
2023/08/22 02:27:23;;;;;;;5.22;4.72;;;27.20;63.80;;;;;;5150721;27;20030;-72
2023/08/22 02:29:48;;;;;;;5.68;5.15;;;27.10;63.80;;;;;;5134320;27;20020;-72
2023/08/22 02:32:14;;;;;;;5.30;4.80;;;27.10;63.90;;;;;;5134339;28;20092;-72
2023/08/22 02:34:40;;;;;;;5.55;4.95;;;27.10;63.90;;;;;;5120620;28;20466;-72
2023/08/22 02:37:06;;;;;;;5.63;5.03;;;27.10;63.90;;;;;;5112379;28;20108;-72
2023/08/22 02:39:32;;;;;;;5.55;5.03;;;27.10;64.00;;;;;;5113545;28;20051;-72
2023/08/22 02:41:58;;;;;;;5.68;5.18;;;27.00;63.90;;;;;;5113740;28;20027;-72
2023/08/22 02:44:23;;;;;;;5.38;4.88;;;27.00;64.00;;;;;;5113832;28;20024;-73
2023/08/22 02:46:49;;;;;;;5.90;5.30;;;26.90;64.00;;;;;;5113651;28;20027;-72
2023/08/22 02:49:15;;;;;;;5.25;4.75;;;26.90;64.10;;;;;;5112796;28;20059;-72
2023/08/22 02:51:40;;;;;;;4.93;4.47;;;26.90;64.20;;;;;;5113463;28;20063;-72
2023/08/22 02:54:06;;;;;;;5.22;4.72;;;27.00;64.20;;;;;;5127337;28;20050;-72
2023/08/22 02:56:31;;;;;;;5.72;4.72;;;27.00;64.20;;;;;;5130938;27;20032;-72
2023/08/22 02:58:57;;;;;;;5.88;5.28;;;27.00;64.10;;;;;;5112351;28;20028;-72
2023/08/22 03:01:23;;;;;;;5.55;5.05;;;27.00;64.10;;;;;;5112237;28;20028;-72
2023/08/22 03:03:50;;;;;;;5.75;5.15;;;26.90;64.10;;;;;;5113673;28;20019;-72
2023/08/22 03:06:17;;;;;;;5.88;5.28;;;26.90;64.30;;;;;;5114859;28;20032;-72
2023/08/22 03:08:42;;;;;;;5.00;4.53;;;26.80;64.20;;;;;;5116082;28;20031;-72
2023/08/22 03:11:08;;;;;;;5.55;5.05;;;26.80;64.20;;;;;;5114395;28;20036;-72
2023/08/22 03:13:35;;;;;;;5.28;4.78;;;26.80;64.30;;;;;;5114235;28;20036;-74
2023/08/22 03:16:02;;;;;;;6.07;5.47;;;26.70;64.30;;;;;;5114935;28;20023;-72
2023/08/22 03:18:27;;;;;;;6.32;5.50;;;26.70;64.30;;;;;;5116064;28;20164;-73
2023/08/22 03:20:56;;;;;;;5.53;4.90;;;26.70;64.30;;;;;;5116133;28;20081;-73
2023/08/22 03:23:23;;;;;;;5.75;5.20;;;26.70;64.40;;;;;;5117601;28;20121;-72
2023/08/22 03:25:59;;;;;;;5.25;4.75;;;26.70;64.40;;;;;;5116446;28;20027;-73
2023/08/22 03:28:26;;;;;;;5.22;4.72;;;26.60;64.40;;;;;;5116475;28;20387;-72
2023/08/22 03:31:02;;;;;;;6.70;5.22;;;26.60;64.40;;;;;;5116995;28;20032;-72
2023/08/22 03:33:29;;;;;;;7.20;6.10;;;26.60;64.40;;;;;;5117378;28;20056;-77
2023/08/22 03:35:55;;;;;;;6.20;5.43;;;26.60;64.40;;;;;;5117256;28;20425;-71
2023/08/22 03:38:21;;;;;;;6.32;5.72;;;26.50;64.40;;;;;;5117027;28;20077;-72
2023/08/22 03:40:48;;;;;;;6.60;6.00;;;26.40;64.40;;;;;;5115645;28;20032;-72
2023/08/22 03:43:15;;;;;;;6.57;5.90;;;26.40;64.60;;;;;;5117155;28;20111;-72
2023/08/22 03:45:44;;;;;;;6.38;5.78;;;26.30;64.60;;;;;;5115301;28;20080;-72
2023/08/22 03:48:10;;;;;;;6.75;5.75;;;26.30;64.80;;;;;;5115438;28;20077;-72
2023/08/22 03:50:38;;;;;;;11.82;5.93;;;26.30;65.00;;;;;;5116759;28;20035;-72
2023/08/22 03:53:04;;;;;;;6.30;5.70;;;26.30;65.00;;;;;;5115484;28;20123;-72
2023/08/22 03:55:29;;;;;;;6.07;5.47;;;26.30;65.00;;;;;;5115642;28;20481;-72
2023/08/22 03:57:58;;;;;;;5.65;5.13;;;26.30;64.80;;;;;;5117295;28;20058;-72
2023/08/22 04:00:24;;;;;;;6.78;5.75;;;26.30;64.90;;;;;;5115465;28;20041;-73
2023/08/22 04:02:54;;;;;;;5.60;5.00;;;26.30;64.90;;;;;;5116848;28;20019;-73
2023/08/22 04:05:21;;;;;;;5.18;4.68;;;26.30;65.10;;;;;;5114960;28;20019;-73
2023/08/22 04:07:46;;;;;;;5.80;5.20;;;26.30;65.20;;;;;;5116096;28;20054;-73
2023/08/22 04:10:12;;;;;;;5.43;4.93;;;26.40;65.20;;;;;;5116646;28;20461;-72
2023/08/22 04:12:37;;;;;;;5.03;4.57;;;26.40;65.10;;;;;;5116742;28;20039;-72
2023/08/22 04:15:03;;;;;;;5.40;4.60;;;26.50;65.10;;;;;;5116594;28;20020;-73
2023/08/22 04:17:29;;;;;;;6.10;4.88;;;26.60;65.10;;;;;;5114300;28;20076;-73
2023/08/22 04:19:55;;;;;;;5.47;4.97;;;26.60;65.00;;;;;;5116162;28;20054;-73
2023/08/22 04:22:20;;;;;;;5.63;5.13;;;26.60;65.00;;;;;;5114984;28;20034;-73
2023/08/22 04:24:46;;;;;;;5.38;4.88;;;26.70;65.00;;;;;;5116143;28;20027;-73
2023/08/22 04:27:11;;;;;;;4.97;4.50;;;26.70;64.90;;;;;;5116521;28;20493;-73
2023/08/22 04:29:37;;;;;;;5.10;4.60;;;26.80;64.90;;;;;;5116287;28;20519;-73
2023/08/22 04:32:03;;;;;;;5.60;4.95;;;26.80;64.90;;;;;;5114611;28;20534;-72
2023/08/22 04:34:29;;;;;;;6.40;5.80;;;26.80;64.90;;;;;;5115723;28;20063;-72
2023/08/22 04:36:55;;;;;;;5.88;5.38;;;26.70;64.60;;;;;;5114206;28;20353;-72
2023/08/22 04:39:21;;;;;;;8.15;5.90;;;26.70;64.90;;;;;;5115066;28;20050;-72
2023/08/22 04:41:46;;;;;;;7.05;6.35;;;26.60;64.90;;;;;;5116192;28;20027;-72
2023/08/22 04:44:12;;;;;;;6.35;5.75;;;26.40;65.00;;;;;;5115667;28;20063;-72
2023/08/22 04:46:37;;;;;;;6.70;5.97;;;26.40;65.30;;;;;;5113745;28;20027;-72
2023/08/22 04:49:03;;;;;;;6.68;6.07;;;26.40;65.30;;;;;;5115843;28;20046;-72
2023/08/22 04:51:29;;;;;;;6.10;5.50;;;26.30;65.30;;;;;;5115593;28;20078;-72
2023/08/22 04:53:54;;;;;;;5.47;4.97;;;26.30;65.40;;;;;;5114252;28;20145;-72
2023/08/22 04:56:21;;;;;;;5.32;4.82;;;26.30;65.50;;;;;;5115112;28;20095;-72
2023/08/22 04:58:46;;;;;;;5.75;5.25;;;26.40;66.10;;;;;;5114641;28;20027;-72
2023/08/22 05:01:12;;;;;;;7.53;5.32;;;26.40;65.40;;;;;;5115501;28;20036;-72
2023/08/22 05:03:38;;;;;;;6.70;5.95;;;26.50;65.40;;;;;;5115253;28;20026;-72
2023/08/22 05:06:03;;;;;;;7.13;6.43;;;26.50;65.40;;;;;;5114835;28;20044;-73
2023/08/22 05:08:29;;;;;;;6.60;6.00;;;26.40;65.30;;;;;;5113619;28;20028;-72
2023/08/22 05:10:55;;;;;;;7.32;6.03;;;26.30;65.40;;;;;;5115231;28;20435;-72
2023/08/22 05:13:20;;;;;;;6.97;5.93;;;26.30;65.50;;;;;;5114384;28;20409;-72
2023/08/22 05:15:46;;;;;;;6.30;5.70;;;26.30;65.50;;;;;;5115125;28;20381;-72
2023/08/22 05:18:12;;;;;;;7.07;6.40;;;26.30;65.70;;;;;;5114421;28;20030;-71
2023/08/22 05:20:40;;;;;;;7.28;6.57;;;26.30;65.60;;;;;;5114166;28;20039;-72
2023/08/22 05:23:06;;;;;;;6.60;5.90;;;26.30;65.60;;;;;;5110005;28;20032;-72
2023/08/22 05:25:31;;;;;;;6.57;5.90;;;26.30;65.90;;;;;;5094879;28;20477;-74
2023/08/22 05:27:57;;;;;;;6.72;6.10;;;26.30;65.70;;;;;;5101021;28;20028;-73
2023/08/22 05:30:22;;;;;;;6.00;5.40;;;26.30;65.70;;;;;;5113732;28;20031;-72
2023/08/22 05:32:48;;;;;;;6.13;5.53;;;26.30;65.70;;;;;;5113329;28;20032;-71
2023/08/22 05:35:14;;;;;;;6.15;5.55;;;26.40;65.80;;;;;;5114201;28;20024;-73
2023/08/22 05:37:39;;;;;;;6.47;5.88;;;26.40;65.70;;;;;;5112898;28;20027;-73
2023/08/22 05:40:08;;;;;;;6.85;6.25;;;26.40;65.60;;;;;;5114737;28;20110;-79
2023/08/22 05:42:33;;;;;;;6.13;5.55;;;26.50;65.70;;;;;;5113785;28;20114;-79
2023/08/22 05:44:59;;;;;;;5.82;5.22;;;26.50;65.60;;;;;;5114858;28;20081;-79
2023/08/22 05:47:25;;;;;;;6.15;5.55;;;26.50;65.40;;;;;;5113225;28;20096;-78
2023/08/22 05:49:50;;;;;;;6.53;5.40;;;26.60;65.30;;;;;;5113196;28;20028;-79
2023/08/22 05:52:16;;;;;;;7.07;5.50;;;26.60;65.10;;;;;;5114297;28;20024;-79
2023/08/22 05:54:43;;;;;;;5.85;5.25;;;26.60;65.10;;;;;;5114705;28;20032;-78
2023/08/22 05:57:08;;;;;;;5.60;5.10;;;26.50;65.00;;;;;;5114444;27;20054;-78
2023/08/22 05:59:34;;;;;;;5.70;5.20;;;26.50;65.00;;;;;;5114246;28;20047;-75
2023/08/22 06:02:00;;;;;;;5.85;5.28;;;26.50;64.90;;;;;;5112930;28;20031;-76
2023/08/22 06:04:25;;;;;;;5.22;4.72;;;26.50;65.00;;;;;;5114129;28;20031;-82
2023/08/22 06:06:51;;;;;;;6.05;4.80;;;26.50;64.90;;;;;;5114644;28;20034;-72
2023/08/22 06:09:17;;;;;;;5.00;4.50;;;26.50;64.90;;;;;;5114120;28;20476;-78
2023/08/22 06:11:42;;;;;;;4.90;4.40;;;26.60;64.90;;;;;;5114027;28;20110;-80
2023/08/22 06:14:08;;;;;;;5.50;4.95;;;26.70;64.60;;;;;;5114430;28;20023;-71
2023/08/22 06:16:34;;;;;;;5.35;4.82;;;26.60;64.10;;;;;;5114030;28;20488;-71
2023/08/22 06:19:00;;;;;;;5.50;4.60;;;26.60;64.00;;;;;;5114263;28;20030;-72
2023/08/22 06:21:26;;;;;;;5.00;4.50;;;26.60;64.20;;;;;;5114013;28;20059;-83
2023/08/22 06:23:51;;;;;;;5.20;4.30;;;26.60;64.20;;;;;;5112793;28;20023;-81
2023/08/22 06:26:17;;;;;;;4.60;4.20;;;26.70;64.00;;;;;;5114133;28;20094;-82
2023/08/22 06:28:43;;;;;;;6.82;4.00;;;26.70;63.70;;;;;;5114103;28;20019;-81
2023/08/22 06:31:08;;;;;;;4.43;3.70;;;26.70;63.60;;;;;;5113840;28;20385;-82
2023/08/22 06:33:34;;;;;;;4.05;3.65;;;26.80;63.40;;;;;;5113830;28;20039;-82
2023/08/22 06:36:00;;;;;;;4.13;3.72;;;26.80;63.20;;;;;;5113997;28;20375;-83
2023/08/22 06:38:25;;;;;;;4.30;3.50;;;26.70;62.80;;;;;;5113370;28;20115;-84
2023/08/22 06:40:51;;;;;;;3.88;3.55;;;26.70;62.80;;;;;;5114286;28;20036;-82
2023/08/22 06:43:17;;;;;;;3.88;3.50;;;26.60;62.80;;;;;;5118108;28;20343;-84
2023/08/22 06:45:42;;;;;;;4.32;3.45;;;26.60;62.90;;;;;;5117846;28;20028;-84
2023/08/22 06:48:09;;;;;;;3.50;3.20;;;26.60;62.80;;;;;;5120238;27;20462;-84
2023/08/22 06:50:35;;;;;;;4.00;3.60;;;26.50;62.80;;;;;;5108553;28;20019;-85
2023/08/22 06:53:01;;;;;;;4.22;3.50;;;26.50;62.60;;;;;;5110704;27;20024;-86
2023/08/22 06:55:26;;;;;;;5.45;3.28;;;26.40;62.60;;;;;;5107361;28;20091;-86
2023/08/22 06:57:52;;;;;;;3.78;3.42;;;26.30;62.70;;;;;;5111381;28;20023;-83
2023/08/22 07:00:18;;;;;;;3.90;3.50;;;26.30;62.60;;;;;;5113063;28;20369;-83
2023/08/22 07:02:45;;;;;;;3.58;3.28;;;26.30;62.60;;;;;;5112615;28;20023;-81
2023/08/22 07:05:12;;;;;;;3.85;3.45;;;26.30;62.60;;;;;;5107762;28;20039;-81
2023/08/22 07:07:38;;;;;;;3.83;3.53;;;26.20;62.60;;;;;;5104102;28;20081;-82
2023/08/22 07:10:10;;;;;;;4.00;3.50;;;26.20;62.50;;;;;;5105033;28;20470;-82
2023/08/22 07:12:36;;;;;;;4.05;3.08;;;26.20;62.50;;;;;;5104568;28;20035;-81
2023/08/22 07:15:04;;;;;;;3.33;3.03;;;26.30;62.40;;;;;;5106378;28;20033;-82
2023/08/22 07:17:30;;;;;;;3.70;3.28;;;26.30;62.30;;;;;;5113868;27;20055;-85
2023/08/22 07:19:56;;;;;;;4.60;4.10;;;26.30;62.10;;;;;;5109888;28;20051;-71
2023/08/22 07:22:22;;;;;;;4.60;3.70;;;26.30;61.70;;;;;;5114004;27;20086;-83
2023/08/22 07:24:48;;;;;;;5.22;4.10;;;26.30;61.70;;;;;;5110220;28;20093;-78
2023/08/22 07:27:14;;;;;;;3.60;3.10;;;26.30;61.20;;;;;;5106965;28;20016;-79
2023/08/22 07:29:40;;;;;;;4.43;3.00;;;26.30;61.10;;;;;;5105242;28;20016;-85
2023/08/22 07:32:08;;;;;;;3.95;3.38;;;26.40;60.80;;;;;;5109442;28;20038;-81
2023/08/22 07:34:34;;;;;;;2.95;2.40;;;26.40;60.60;;;;;;5110575;27;20032;-84
2023/08/22 07:37:00;;;;;;;2.70;2.42;;;26.50;60.30;;;;;;5110511;28;20032;-87
2023/08/22 07:39:27;;;;;;;2.95;2.38;;;26.50;59.90;;;;;;5107191;28;20028;-86
2023/08/22 07:41:53;;;;;;;2.35;2.15;;;26.50;59.40;;;;;;5111258;28;20115;-85
2023/08/22 07:44:19;;;;;;;2.38;2.17;;;26.50;59.00;;;;;;5103708;28;20522;-85
2023/08/22 07:46:45;;;;;;;4.43;2.50;;;26.40;58.40;;;;;;5109030;28;20027;-81
2023/08/22 07:49:11;;;;;;;3.08;2.10;;;26.40;58.10;;;;;;5106349;28;20027;-73
2023/08/22 07:51:37;;;;;;;4.78;2.35;;;26.40;58.00;;;;;;5106410;28;20090;-88
2023/08/22 07:54:05;;;;;;;3.20;2.10;;;26.40;57.00;;;;;;5108876;28;20040;-92
2023/08/22 07:56:34;;;;;;;1.80;1.70;;;26.40;56.40;;;;;;5114367;28;20468;-88
2023/08/22 07:59:00;;;;;;;4.00;1.70;;;26.40;56.60;;;;;;5114949;28;20389;-91
2023/08/22 08:01:26;;;;;;;1.70;1.60;;;26.40;56.60;;;;;;5115974;28;20034;-90
2023/08/22 08:03:51;;;;;;;1.75;1.65;;;26.50;55.80;;;;;;5117119;28;20031;-89
2023/08/22 08:06:17;;;;;;;3.08;1.67;;;26.40;55.10;;;;;;5116657;28;20496;-89
2023/08/22 08:08:43;;;;;;;2.00;1.70;;;26.50;54.60;;;;;;5116839;28;20050;-90
2023/08/22 08:11:08;;;;;;;1.75;1.65;;;26.50;54.30;;;;;;5116497;28;20457;-89
2023/08/22 08:13:34;;;;;;;1.88;1.67;;;26.40;54.30;;;;;;5116319;28;20484;-89
2023/08/22 08:15:59;;;;;;;3.35;1.60;;;26.50;54.10;;;;;;5115394;28;20439;-90
2023/08/22 08:18:25;;;;;;;3.47;1.60;;;26.50;53.80;;;;;;5116237;28;20019;-89
2023/08/22 08:20:51;;;;;;;3.33;1.52;;;26.50;53.10;;;;;;5116069;28;20051;-91
2023/08/22 08:23:17;;;;;;;1.88;1.48;;;26.50;52.40;;;;;;5116231;28;20024;-89
2023/08/22 08:25:43;;;;;;;3.65;1.23;;;26.50;52.30;;;;;;5116570;28;20135;-89
2023/08/22 08:28:09;;;;;;;3.45;1.30;;;26.50;52.20;;;;;;5116363;28;20028;-89
2023/08/22 08:30:34;;;;;;;2.25;1.30;;;26.50;52.10;;;;;;5116754;28;20032;-90
2023/08/22 08:33:03;;;;;;;1.60;1.50;;;26.60;51.90;;;;;;5116430;28;20023;-89
2023/08/22 08:35:30;;;;;;;2.10;1.27;;;26.60;51.20;;;;;;5116089;28;20149;-90
2023/08/22 08:37:57;;;;;;;1.50;1.40;;;26.60;51.30;;;;;;5116206;28;20100;-89
2023/08/22 08:40:22;;;;;;;1.98;1.50;;;26.60;51.60;;;;;;5116452;28;20031;-89
2023/08/22 08:42:48;;;;;;;1.60;1.42;;;26.60;52.30;;;;;;5116181;28;20020;-89
2023/08/22 08:45:15;;;;;;;2.97;1.60;;;26.70;51.70;;;;;;5115113;28;20027;-89
2023/08/22 08:47:42;;;;;;;1.67;1.50;;;26.70;51.60;;;;;;5116601;28;20023;-90
2023/08/22 08:50:09;;;;;;;1.63;1.52;;;26.80;51.70;;;;;;5115998;28;20024;-90
2023/08/22 08:52:35;;;;;;;1.70;1.60;;;26.80;51.70;;;;;;5116223;28;20032;-90
2023/08/22 08:55:03;;;;;;;1.63;1.52;;;26.90;51.30;;;;;;5116389;28;20023;-89
2023/08/22 08:57:29;;;;;;;1.98;1.67;;;26.90;51.40;;;;;;5115784;28;20115;-90
2023/08/22 08:59:55;;;;;;;1.83;1.70;;;26.90;51.10;;;;;;5116787;28;20103;-90
2023/08/22 09:02:21;;;;;;;3.15;1.50;;;26.90;50.60;;;;;;5115760;28;20095;-90
2023/08/22 09:04:47;;;;;;;1.48;1.30;;;26.90;50.70;;;;;;5115534;28;20023;-90
2023/08/22 09:07:14;;;;;;;2.95;1.55;;;26.90;50.50;;;;;;5115836;28;20385;-89
2023/08/22 09:09:40;;;;;;;2.65;1.65;;;26.90;50.20;;;;;;5115341;28;20084;-89
2023/08/22 09:12:08;;;;;;;1.77;1.58;;;26.90;50.40;;;;;;5115564;28;20036;-90
2023/08/22 09:14:34;;;;;;;2.22;1.67;;;27.00;50.10;;;;;;5115857;28;20043;-88
2023/08/22 09:17:02;;;;;;;2.33;1.60;;;27.00;50.20;;;;;;5115550;28;20392;-88
2023/08/22 09:19:34;;;;;;;1.63;1.52;;;27.00;50.10;;;;;;5115406;28;20051;-87
2023/08/22 09:22:03;;;;;;;1.98;1.60;;;27.10;50.10;;;;;;5115311;28;20023;-88
2023/08/22 09:24:29;;;;;;;1.63;1.40;;;27.10;50.00;;;;;;5113749;28;20027;-89
2023/08/22 09:26:55;;;;;;;1.55;1.45;;;27.10;49.80;;;;;;5115532;28;20034;-89
2023/08/22 09:29:42;;;;;;;2.90;1.60;;;27.20;50.00;;;;;;5115364;27;20016;-89
2023/08/22 09:32:08;;;;;;;1.42;1.33;;;27.30;49.40;;;;;;5115741;28;20031;-91
2023/08/22 09:34:34;;;;;;;1.42;1.30;;;27.30;49.80;;;;;;5115038;28;20031;-90
2023/08/22 09:37:00;;;;;;;2.78;1.48;;;27.30;49.50;;;;;;5114641;28;20034;-90
2023/08/22 09:39:28;;;;;;;1.80;1.67;;;27.40;49.50;;;;;;5114770;28;20434;-91
2023/08/22 09:42:00;;;;;;;2.05;1.60;;;27.50;49.40;;;;;;5115178;28;20067;-91
2023/08/22 09:44:27;;;;;;;1.52;1.35;;;27.50;49.40;;;;;;5114882;28;20019;-91
2023/08/22 09:46:55;;;;;;;2.08;1.33;;;27.60;50.00;;;;;;5114691;28;20051;-91
2023/08/22 09:49:22;;;;;;;2.65;1.42;;;27.60;49.40;;;;;;5113401;28;20038;-91
2023/08/22 09:51:50;;;;;;;1.63;1.30;;;27.70;49.30;;;;;;5115255;28;20442;-91
2023/08/22 09:54:16;;;;;;;1.63;1.50;;;27.70;49.30;;;;;;5116067;27;20059;-90
2023/08/22 09:56:42;;;;;;;1.52;1.35;;;27.70;48.90;;;;;;5115189;28;20031;-91
2023/08/22 09:59:10;;;;;;;2.15;1.80;;;27.70;48.30;;;;;;5116080;28;20027;-90
2023/08/22 10:01:38;;;;;;;1.67;1.58;;;27.70;48.10;;;;;;5114696;28;20529;-89
2023/08/22 10:04:05;;;;;;;1.70;1.60;;;27.70;48.00;;;;;;5113974;28;20532;-92
2023/08/22 10:06:33;;;;;;;1.52;1.42;;;27.70;47.90;;;;;;5113179;28;20068;-90
2023/08/22 10:09:04;;;;;;;1.35;1.25;;;27.80;48.20;;;;;;5114489;28;20534;-91
2023/08/22 10:11:31;;;;;;;1.70;1.60;;;27.90;48.20;;;;;;5113712;28;20097;-91
2023/08/22 10:13:57;;;;;;;2.38;1.60;;;28.00;47.50;;;;;;5112994;28;20028;-90
2023/08/22 10:16:29;;;;;;;1.55;1.45;;;28.00;47.10;;;;;;5113907;28;20035;-91
2023/08/22 10:19:02;;;;;;;1.70;1.60;;;28.00;47.40;;;;;;5115429;28;20058;-90
2023/08/22 10:21:33;;;;;;;3.10;1.70;;;28.00;47.40;;;;;;5074009;28;20093;-90
2023/08/22 10:23:59;;;;;;;1.55;1.45;;;28.10;47.60;;;;;;5074170;28;20021;-90
2023/08/22 10:26:47;;;;;;;2.15;1.50;;;28.00;47.50;;;;;;5074966;28;20491;-90
2023/08/22 10:29:17;;;;;;;2.08;1.58;;;28.10;47.30;;;;;;5072687;28;20027;-90
2023/08/22 10:32:15;;;;;;;1.73;1.52;;;28.10;47.70;;;;;;5075280;28;20044;-89
2023/08/22 10:34:41;;;;;;;1.58;1.40;;;28.10;46.80;;;;;;5063411;28;20368;-90
2023/08/22 10:37:25;;;;;;;1.73;1.60;;;28.00;47.30;;;;;;5076925;28;20097;-90
2023/08/22 10:39:52;;;;;;;1.73;1.38;;;28.10;47.50;;;;;;5076896;28;20050;-91
2023/08/22 10:42:21;;;;;;;2.42;1.40;;;28.10;47.60;;;;;;5076114;28;20067;-91
2023/08/22 10:44:50;;;;;;;3.15;1.73;;;28.10;47.70;;;;;;5077593;28;20068;-90
2023/08/22 10:47:21;;;;;;;2.72;1.48;;;28.20;47.70;;;;;;5073906;28;20421;-90
2023/08/22 10:49:57;;;;;;;1.60;1.50;;;28.20;47.70;;;;;;5073202;28;20458;-92
2023/08/22 10:52:26;;;;;;;3.50;1.40;;;28.10;47.30;;;;;;5073562;28;20524;-90
2023/08/22 10:55:00;;;;;;;2.13;1.30;;;28.10;47.30;;;;;;5074231;28;20467;-89
2023/08/22 10:57:27;;;;;;;1.50;1.40;;;28.00;47.30;;;;;;5075733;28;20028;-89
2023/08/22 11:00:19;;;;;;;1.45;1.35;;;28.00;47.30;;;;;;5075579;28;20064;-90
2023/08/22 11:02:51;;;;;;;2.28;1.52;;;28.00;47.20;;;;;;5073832;28;20021;-90
2023/08/22 11:05:17;;;;;;;1.75;1.60;;;28.00;47.30;;;;;;5072615;28;20025;-90
2023/08/22 11:07:48;;;;;;;1.95;1.48;;;27.90;47.20;;;;;;5074819;28;20355;-89
2023/08/22 11:10:16;;;;;;;1.50;1.40;;;27.90;47.20;;;;;;5073914;28;20032;-90
2023/08/22 11:12:45;;;;;;;1.88;1.33;;;27.90;47.20;;;;;;5073037;28;20189;-90
2023/08/22 11:15:15;;;;;;;2.58;1.20;;;27.90;47.10;;;;;;5073708;28;20021;-90
2023/08/22 11:17:41;;;;;;;1.67;1.20;;;27.80;47.00;;;;;;5072146;28;20021;-89
2023/08/22 11:20:11;;;;;;;1.40;1.30;;;27.80;47.10;;;;;;5091657;28;20132;-89
2023/08/22 11:22:37;;;;;;;2.03;1.20;;;27.80;47.00;;;;;;5113687;28;20020;-89
2023/08/22 11:25:04;;;;;;;1.25;1.15;;;27.80;47.20;;;;;;5114056;28;20480;-90
2023/08/22 11:27:30;;;;;;;1.60;1.38;;;27.80;47.30;;;;;;5115097;28;20115;-89
2023/08/22 11:29:55;;;;;;;1.55;1.45;;;27.90;47.10;;;;;;5117535;28;20047;-89
2023/08/22 11:32:25;;;;;;;1.38;1.15;;;27.90;46.80;;;;;;5117640;28;20024;-89
2023/08/22 11:34:52;;;;;;;1.75;1.30;;;27.90;46.60;;;;;;5117379;28;20076;-89
2023/08/22 11:37:18;;;;;;;1.20;1.10;;;27.90;46.60;;;;;;5117374;28;20369;-90
2023/08/22 11:39:48;;;;;;;1.55;1.35;;;27.90;46.60;;;;;;5117193;28;20024;-90
2023/08/22 11:42:15;;;;;;;1.58;1.10;;;27.90;46.50;;;;;;5117513;28;20084;-90
2023/08/22 11:44:59;;;;;;;1.98;1.10;;;27.90;46.60;;;;;;5117802;28;20024;-90
2023/08/22 11:47:38;;;;;;;1.80;1.40;;;28.00;46.20;;;;;;5117220;28;20087;-89
2023/08/22 11:50:05;;;;;;;1.52;1.40;;;28.00;45.90;;;;;;5115298;28;20058;-90
2023/08/22 11:52:31;;;;;;;1.73;1.20;;;28.10;46.30;;;;;;5113284;28;20050;-88
2023/08/22 11:55:04;;;;;;;1.35;1.20;;;28.10;46.00;;;;;;5116526;28;20020;-90
2023/08/22 11:57:31;;;;;;;2.05;1.40;;;28.10;45.50;;;;;;5117003;28;20384;-90
2023/08/22 12:00:00;;;;;;;1.30;1.20;;;28.10;45.50;;;;;;5116838;28;20058;-86
2023/08/22 12:02:26;;;;;;;2.33;1.27;;;28.10;45.40;;;;;;5116924;28;20102;-88
2023/08/22 12:04:55;;;;;;;1.20;1.10;;;28.00;45.30;;;;;;5116325;28;20126;-84
2023/08/22 12:07:24;;;;;;;0.98;0.90;;;28.10;45.00;;;;;;5116911;28;20103;-87
2023/08/22 12:10:00;;;;;;;1.23;0.90;;;28.10;45.10;;;;;;5108446;28;20031;-88
2023/08/22 12:12:26;;;;;;;2.15;1.10;;;28.10;44.80;;;;;;5108335;28;20031;-90
2023/08/22 12:14:51;;;;;;;2.17;1.00;;;28.20;45.00;;;;;;5105950;28;20037;-76
2023/08/22 12:17:18;;;;;;;2.47;1.13;;;28.30;45.00;;;;;;5106506;28;20024;-87
2023/08/22 12:19:44;;;;;;;1.52;0.90;;;28.30;44.80;;;;;;5106305;28;20051;-92
2023/08/22 12:22:09;;;;;;;2.20;1.90;;;28.40;44.80;;;;;;5109262;28;20039;-72
2023/08/22 12:24:35;;;;;;;10.45;9.43;;;28.40;44.60;;;;;;5105353;28;20034;-93
2023/08/22 12:27:01;;;;;;;27.48;24.67;;;28.40;44.50;;;;;;5111300;27;20027;-89
2023/08/22 12:29:26;;;;;;;1.92;1.60;;;28.50;44.50;;;;;;5106712;28;20145;-91
2023/08/22 12:31:52;;;;;;;3.38;1.40;;;28.50;44.20;;;;;;5104523;28;20031;-89
2023/08/22 12:34:18;;;;;;;4.35;3.85;;;28.50;43.70;;;;;;5106008;28;20024;-81
2023/08/22 12:36:43;;;;;;;1.45;1.13;;;28.50;43.30;;;;;;5104106;28;20059;-87
2023/08/22 12:39:12;;;;;;;1.73;1.20;;;28.50;43.40;;;;;;5106991;28;20106;-81
2023/08/22 12:41:41;;;;;;;4.10;1.30;;;28.50;43.20;;;;;;5107496;28;20027;-82
2023/08/22 12:44:06;;;;;;;4.50;2.00;;;28.50;43.10;;;;;;5108089;28;20032;-85
2023/08/22 12:46:32;;;;;;;1.25;1.13;;;28.40;43.10;;;;;;5111649;28;20043;-86